sensor_id;sensor_type;location;lat;lon;timestamp;temperature;humidity
34640;DHT22;22600;48.186;11.526;2023-02-18T00:01:29;21.60;57.60
34640;DHT22;22600;48.186;11.526;2023-02-18T00:03:56;21.60;57.10
34640;DHT22;22600;48.186;11.526;2023-02-18T00:06:25;21.60;57.20
34640;DHT22;22600;48.186;11.526;2023-02-18T00:08:51;21.60;57.20
34640;DHT22;22600;48.186;11.526;2023-02-18T00:11:18;21.60;57.30
34640;DHT22;22600;48.186;11.526;2023-02-18T00:13:52;21.60;57.60
34640;DHT22;22600;48.186;11.526;2023-02-18T00:16:19;21.60;57.80
34640;DHT22;22600;48.186;11.526;2023-02-18T00:18:45;21.60;57.80
34640;DHT22;22600;48.186;11.526;2023-02-18T00:21:11;21.60;57.90
34640;DHT22;22600;48.186;11.526;2023-02-18T00:23:36;21.60;58.30
34640;DHT22;22600;48.186;11.526;2023-02-18T00:26:08;21.60;57.60
34640;DHT22;22600;48.186;11.526;2023-02-18T00:28:34;21.60;58.00
34640;DHT22;22600;48.186;11.526;2023-02-18T00:31:08;21.60;58.00
34640;DHT22;22600;48.186;11.526;2023-02-18T00:33:34;21.60;57.80
34640;DHT22;22600;48.186;11.526;2023-02-18T00:36:02;21.60;57.90
34640;DHT22;22600;48.186;11.526;2023-02-18T00:38:28;21.60;58.10
34640;DHT22;22600;48.186;11.526;2023-02-18T00:40:53;21.60;58.20
34640;DHT22;22600;48.186;11.526;2023-02-18T00:43:19;21.60;58.00
34640;DHT22;22600;48.186;11.526;2023-02-18T00:45:44;21.60;58.50
34640;DHT22;22600;48.186;11.526;2023-02-18T00:48:10;21.60;57.90
34640;DHT22;22600;48.186;11.526;2023-02-18T00:50:35;21.60;58.50
34640;DHT22;22600;48.186;11.526;2023-02-18T00:53:01;21.60;58.70
34640;DHT22;22600;48.186;11.526;2023-02-18T00:55:27;21.60;58.70
34640;DHT22;22600;48.186;11.526;2023-02-18T00:57:52;21.60;58.80
34640;DHT22;22600;48.186;11.526;2023-02-18T01:00:18;21.60;58.80
34640;DHT22;22600;48.186;11.526;2023-02-18T01:02:43;21.60;58.90
34640;DHT22;22600;48.186;11.526;2023-02-18T01:05:09;21.60;58.90
34640;DHT22;22600;48.186;11.526;2023-02-18T01:07:35;21.60;58.90
34640;DHT22;22600;48.186;11.526;2023-02-18T01:10:00;21.60;59.30
34640;DHT22;22600;48.186;11.526;2023-02-18T01:12:26;21.60;59.30
34640;DHT22;22600;48.186;11.526;2023-02-18T01:14:51;21.60;58.90
34640;DHT22;22600;48.186;11.526;2023-02-18T01:17:17;21.60;59.40
34640;DHT22;22600;48.186;11.526;2023-02-18T01:19:42;21.60;59.00
34640;DHT22;22600;48.186;11.526;2023-02-18T01:22:08;21.60;59.40
34640;DHT22;22600;48.186;11.526;2023-02-18T01:24:33;21.60;59.20
34640;DHT22;22600;48.186;11.526;2023-02-18T01:26:59;21.60;59.30
34640;DHT22;22600;48.186;11.526;2023-02-18T01:29:25;21.60;59.20
34640;DHT22;22600;48.186;11.526;2023-02-18T01:31:50;21.60;59.20
34640;DHT22;22600;48.186;11.526;2023-02-18T01:34:16;21.60;59.10
34640;DHT22;22600;48.186;11.526;2023-02-18T01:36:41;21.60;58.90
34640;DHT22;22600;48.186;11.526;2023-02-18T01:39:07;21.60;59.20
34640;DHT22;22600;48.186;11.526;2023-02-18T01:41:32;21.60;59.00
34640;DHT22;22600;48.186;11.526;2023-02-18T01:44:11;21.60;60.10
34640;DHT22;22600;48.186;11.526;2023-02-18T01:46:37;21.60;58.80
34640;DHT22;22600;48.186;11.526;2023-02-18T01:49:03;21.70;59.00
34640;DHT22;22600;48.186;11.526;2023-02-18T01:51:36;21.60;59.10
34640;DHT22;22600;48.186;11.526;2023-02-18T01:56:59;21.60;59.20
34640;DHT22;22600;48.186;11.526;2023-02-18T01:59:31;21.60;59.40
34640;DHT22;22600;48.186;11.526;2023-02-18T02:01:58;21.60;59.20
34640;DHT22;22600;48.186;11.526;2023-02-18T02:04:24;21.60;59.20
34640;DHT22;22600;48.186;11.526;2023-02-18T02:06:50;21.60;59.00
34640;DHT22;22600;48.186;11.526;2023-02-18T02:09:18;21.60;59.00
34640;DHT22;22600;48.186;11.526;2023-02-18T02:45:37;21.60;59.20
34640;DHT22;22600;48.186;11.526;2023-02-18T02:48:37;21.60;58.80
34640;DHT22;22600;48.186;11.526;2023-02-18T02:51:28;21.60;58.80
34640;DHT22;22600;48.186;11.526;2023-02-18T02:54:09;21.80;58.60
34640;DHT22;22600;48.186;11.526;2023-02-18T02:56:34;21.60;59.00
34640;DHT22;22600;48.186;11.526;2023-02-18T02:59:03;21.60;58.50
34640;DHT22;22600;48.186;11.526;2023-02-18T03:01:39;21.60;59.10
34640;DHT22;22600;48.186;11.526;2023-02-18T03:04:22;21.60;58.90
34640;DHT22;22600;48.186;11.526;2023-02-18T03:07:07;21.60;58.80
34640;DHT22;22600;48.186;11.526;2023-02-18T03:12:53;21.60;59.30
34640;DHT22;22600;48.186;11.526;2023-02-18T03:15:47;21.60;59.20
34640;DHT22;22600;48.186;11.526;2023-02-18T03:19:05;21.60;59.60
34640;DHT22;22600;48.186;11.526;2023-02-18T03:21:29;21.60;58.90
34640;DHT22;22600;48.186;11.526;2023-02-18T03:24:09;26.70;62.40
34640;DHT22;22600;48.186;11.526;2023-02-18T03:26:42;21.60;59.70
34640;DHT22;22600;48.186;11.526;2023-02-18T03:29:09;20.70;59.20
34640;DHT22;22600;48.186;11.526;2023-02-18T03:31:37;21.70;59.70
34640;DHT22;22600;48.186;11.526;2023-02-18T03:34:08;21.60;58.90
34640;DHT22;22600;48.186;11.526;2023-02-18T03:36:35;21.60;58.70
34640;DHT22;22600;48.186;11.526;2023-02-18T03:39:13;21.60;58.70
34640;DHT22;22600;48.186;11.526;2023-02-18T03:41:39;21.60;58.80
34640;DHT22;22600;48.186;11.526;2023-02-18T03:44:06;21.60;59.30
34640;DHT22;22600;48.186;11.526;2023-02-18T03:46:33;21.60;59.40
34640;DHT22;22600;48.186;11.526;2023-02-18T03:49:00;21.60;59.40
34640;DHT22;22600;48.186;11.526;2023-02-18T03:51:26;21.60;58.90
34640;DHT22;22600;48.186;11.526;2023-02-18T03:53:51;21.60;58.90
34640;DHT22;22600;48.186;11.526;2023-02-18T03:56:18;21.60;59.20
34640;DHT22;22600;48.186;11.526;2023-02-18T03:58:43;21.60;58.80
34640;DHT22;22600;48.186;11.526;2023-02-18T04:01:09;21.60;59.20
34640;DHT22;22600;48.186;11.526;2023-02-18T04:03:35;21.60;59.40
34640;DHT22;22600;48.186;11.526;2023-02-18T04:06:00;21.60;59.40
34640;DHT22;22600;48.186;11.526;2023-02-18T04:08:26;21.60;59.50
34640;DHT22;22600;48.186;11.526;2023-02-18T04:10:51;21.60;59.50
34640;DHT22;22600;48.186;11.526;2023-02-18T04:13:17;21.60;59.30
34640;DHT22;22600;48.186;11.526;2023-02-18T04:15:44;21.60;59.40
34640;DHT22;22600;48.186;11.526;2023-02-18T04:18:10;21.60;59.40
34640;DHT22;22600;48.186;11.526;2023-02-18T04:20:36;21.60;59.20
34640;DHT22;22600;48.186;11.526;2023-02-18T04:23:02;21.60;59.10
34640;DHT22;22600;48.186;11.526;2023-02-18T04:25:28;21.60;58.90
34640;DHT22;22600;48.186;11.526;2023-02-18T04:27:54;21.60;59.30
34640;DHT22;22600;48.186;11.526;2023-02-18T04:30:19;21.60;59.30
34640;DHT22;22600;48.186;11.526;2023-02-18T04:32:45;21.60;59.10
34640;DHT22;22600;48.186;11.526;2023-02-18T04:35:10;21.60;59.20
34640;DHT22;22600;48.186;11.526;2023-02-18T04:37:36;21.60;59.30
34640;DHT22;22600;48.186;11.526;2023-02-18T04:40:02;21.60;59.20
34640;DHT22;22600;48.186;11.526;2023-02-18T04:42:27;21.60;59.30
34640;DHT22;22600;48.186;11.526;2023-02-18T04:44:53;21.60;58.90
34640;DHT22;22600;48.186;11.526;2023-02-18T04:47:18;21.60;59.00
34640;DHT22;22600;48.186;11.526;2023-02-18T04:49:44;21.60;59.60
34640;DHT22;22600;48.186;11.526;2023-02-18T04:52:10;21.60;59.30
34640;DHT22;22600;48.186;11.526;2023-02-18T04:54:35;21.60;59.80
34640;DHT22;22600;48.186;11.526;2023-02-18T04:57:01;21.60;59.10
34640;DHT22;22600;48.186;11.526;2023-02-18T04:59:26;21.60;59.00
34640;DHT22;22600;48.186;11.526;2023-02-18T05:01:52;21.60;59.20
34640;DHT22;22600;48.186;11.526;2023-02-18T05:04:17;21.60;59.50
34640;DHT22;22600;48.186;11.526;2023-02-18T05:09:10;21.60;59.20
34640;DHT22;22600;48.186;11.526;2023-02-18T05:11:35;21.60;59.10
34640;DHT22;22600;48.186;11.526;2023-02-18T05:14:01;21.60;59.40
34640;DHT22;22600;48.186;11.526;2023-02-18T05:16:26;21.60;59.40
34640;DHT22;22600;48.186;11.526;2023-02-18T05:18:52;21.50;59.20
34640;DHT22;22600;48.186;11.526;2023-02-18T05:21:18;21.60;59.50
34640;DHT22;22600;48.186;11.526;2023-02-18T05:23:43;21.50;59.60
34640;DHT22;22600;48.186;11.526;2023-02-18T05:26:09;21.60;59.70
34640;DHT22;22600;48.186;11.526;2023-02-18T05:28:34;21.60;59.80
34640;DHT22;22600;48.186;11.526;2023-02-18T05:31:01;21.60;59.70
34640;DHT22;22600;48.186;11.526;2023-02-18T05:33:27;21.60;59.80
34640;DHT22;22600;48.186;11.526;2023-02-18T05:35:53;21.50;59.60
34640;DHT22;22600;48.186;11.526;2023-02-18T05:38:18;21.60;59.40
34640;DHT22;22600;48.186;11.526;2023-02-18T05:40:44;21.60;59.10
34640;DHT22;22600;48.186;11.526;2023-02-18T05:43:10;21.60;59.30
34640;DHT22;22600;48.186;11.526;2023-02-18T05:45:36;21.50;59.20
34640;DHT22;22600;48.186;11.526;2023-02-18T05:48:02;21.60;59.70
34640;DHT22;22600;48.186;11.526;2023-02-18T05:50:27;21.60;59.40
34640;DHT22;22600;48.186;11.526;2023-02-18T05:52:53;21.60;59.40
34640;DHT22;22600;48.186;11.526;2023-02-18T05:55:18;21.60;59.50
34640;DHT22;22600;48.186;11.526;2023-02-18T05:57:44;21.60;59.60
34640;DHT22;22600;48.186;11.526;2023-02-18T06:02:37;21.60;59.40
34640;DHT22;22600;48.186;11.526;2023-02-18T06:05:03;21.50;60.00
34640;DHT22;22600;48.186;11.526;2023-02-18T06:07:29;21.60;59.70
34640;DHT22;22600;48.186;11.526;2023-02-18T06:09:54;21.60;59.80
34640;DHT22;22600;48.186;11.526;2023-02-18T06:12:20;21.60;60.30
34640;DHT22;22600;48.186;11.526;2023-02-18T06:14:45;21.60;59.20
34640;DHT22;22600;48.186;11.526;2023-02-18T06:17:12;21.60;59.30
34640;DHT22;22600;48.186;11.526;2023-02-18T06:19:38;21.60;59.40
34640;DHT22;22600;48.186;11.526;2023-02-18T06:22:04;21.50;59.30
34640;DHT22;22600;48.186;11.526;2023-02-18T06:24:30;21.60;59.10
34640;DHT22;22600;48.186;11.526;2023-02-18T06:26:55;21.60;59.10
34640;DHT22;22600;48.186;11.526;2023-02-18T06:29:21;21.60;59.10
34640;DHT22;22600;48.186;11.526;2023-02-18T06:31:46;21.50;59.10
34640;DHT22;22600;48.186;11.526;2023-02-18T06:34:12;21.50;59.10
34640;DHT22;22600;48.186;11.526;2023-02-18T06:36:38;21.60;59.20
34640;DHT22;22600;48.186;11.526;2023-02-18T06:39:04;21.60;59.20
34640;DHT22;22600;48.186;11.526;2023-02-18T06:41:30;21.60;59.60
34640;DHT22;22600;48.186;11.526;2023-02-18T06:43:56;21.60;59.30
34640;DHT22;22600;48.186;11.526;2023-02-18T06:46:21;21.60;59.30
34640;DHT22;22600;48.186;11.526;2023-02-18T06:48:47;21.60;59.80
34640;DHT22;22600;48.186;11.526;2023-02-18T06:51:13;21.60;59.40
34640;DHT22;22600;48.186;11.526;2023-02-18T06:53:40;21.50;59.70
34640;DHT22;22600;48.186;11.526;2023-02-18T06:56:06;21.60;59.50
34640;DHT22;22600;48.186;11.526;2023-02-18T06:58:31;21.60;59.70
34640;DHT22;22600;48.186;11.526;2023-02-18T07:00:57;21.60;59.70
34640;DHT22;22600;48.186;11.526;2023-02-18T07:03:23;21.60;59.80
34640;DHT22;22600;48.186;11.526;2023-02-18T07:05:48;21.60;60.20
34640;DHT22;22600;48.186;11.526;2023-02-18T07:08:14;21.60;60.00
34640;DHT22;22600;48.186;11.526;2023-02-18T07:10:40;25.00;62.20
34640;DHT22;22600;48.186;11.526;2023-02-18T07:13:05;21.60;59.90
34640;DHT22;22600;48.186;11.526;2023-02-18T07:15:31;21.60;59.80
34640;DHT22;22600;48.186;11.526;2023-02-18T07:17:56;19.50;58.80
34640;DHT22;22600;48.186;11.526;2023-02-18T07:20:23;21.60;60.10
34640;DHT22;22600;48.186;11.526;2023-02-18T07:22:49;21.60;59.80
34640;DHT22;22600;48.186;11.526;2023-02-18T07:25:15;21.60;60.20
34640;DHT22;22600;48.186;11.526;2023-02-18T07:30:08;21.60;60.40
34640;DHT22;22600;48.186;11.526;2023-02-18T07:32:33;21.60;60.70
34640;DHT22;22600;48.186;11.526;2023-02-18T07:34:59;21.60;60.70
34640;DHT22;22600;48.186;11.526;2023-02-18T07:37:24;21.60;60.60
34640;DHT22;22600;48.186;11.526;2023-02-18T07:39:50;21.60;60.00
34640;DHT22;22600;48.186;11.526;2023-02-18T07:42:15;21.60;60.10
34640;DHT22;22600;48.186;11.526;2023-02-18T07:44:41;21.60;60.70
34640;DHT22;22600;48.186;11.526;2023-02-18T07:47:08;21.60;60.70
34640;DHT22;22600;48.186;11.526;2023-02-18T07:49:35;21.60;61.10
34640;DHT22;22600;48.186;11.526;2023-02-18T07:52:00;21.60;61.20
34640;DHT22;22600;48.186;11.526;2023-02-18T07:54:26;21.60;61.00
34640;DHT22;22600;48.186;11.526;2023-02-18T07:56:52;21.60;60.70
34640;DHT22;22600;48.186;11.526;2023-02-18T07:59:19;21.60;61.00
34640;DHT22;22600;48.186;11.526;2023-02-18T08:01:45;21.60;60.80
34640;DHT22;22600;48.186;11.526;2023-02-18T08:04:10;21.60;61.50
34640;DHT22;22600;48.186;11.526;2023-02-18T08:06:41;21.70;61.60
34640;DHT22;22600;48.186;11.526;2023-02-18T08:09:07;21.70;61.70
34640;DHT22;22600;48.186;11.526;2023-02-18T08:11:34;21.70;61.80
34640;DHT22;22600;48.186;11.526;2023-02-18T08:14:00;21.70;61.80
34640;DHT22;22600;48.186;11.526;2023-02-18T08:16:26;21.70;61.80
34640;DHT22;22600;48.186;11.526;2023-02-18T08:18:52;21.70;62.00
34640;DHT22;22600;48.186;11.526;2023-02-18T08:21:20;21.70;62.00
34640;DHT22;22600;48.186;11.526;2023-02-18T08:23:46;21.70;62.60
34640;DHT22;22600;48.186;11.526;2023-02-18T08:26:12;21.70;61.50
34640;DHT22;22600;48.186;11.526;2023-02-18T08:28:38;21.70;62.20
34640;DHT22;22600;48.186;11.526;2023-02-18T08:31:04;21.70;61.50
34640;DHT22;22600;48.186;11.526;2023-02-18T08:33:29;21.80;61.50
34640;DHT22;22600;48.186;11.526;2023-02-18T08:35:55;21.80;61.40
34640;DHT22;22600;48.186;11.526;2023-02-18T08:38:22;21.80;61.50
34640;DHT22;22600;48.186;11.526;2023-02-18T08:40:48;21.80;61.60
34640;DHT22;22600;48.186;11.526;2023-02-18T08:43:14;21.80;61.40
34640;DHT22;22600;48.186;11.526;2023-02-18T08:45:41;21.80;61.40
34640;DHT22;22600;48.186;11.526;2023-02-18T08:48:08;21.80;61.40
34640;DHT22;22600;48.186;11.526;2023-02-18T08:50:34;21.90;61.30
34640;DHT22;22600;48.186;11.526;2023-02-18T08:53:00;21.90;62.00
34640;DHT22;22600;48.186;11.526;2023-02-18T08:55:32;21.90;61.50
34640;DHT22;22600;48.186;11.526;2023-02-18T08:57:58;21.90;61.80
34640;DHT22;22600;48.186;11.526;2023-02-18T09:00:24;22.00;61.80
34640;DHT22;22600;48.186;11.526;2023-02-18T09:02:49;21.90;62.30
34640;DHT22;22600;48.186;11.526;2023-02-18T09:05:15;21.90;62.20
34640;DHT22;22600;48.186;11.526;2023-02-18T09:07:41;22.00;61.80
34640;DHT22;22600;48.186;11.526;2023-02-18T09:10:07;22.00;61.70
34640;DHT22;22600;48.186;11.526;2023-02-18T09:12:33;22.00;61.70
34640;DHT22;22600;48.186;11.526;2023-02-18T09:14:59;22.00;62.30
34640;DHT22;22600;48.186;11.526;2023-02-18T09:17:25;22.00;62.50
34640;DHT22;22600;48.186;11.526;2023-02-18T09:19:51;22.00;61.90
34640;DHT22;22600;48.186;11.526;2023-02-18T09:22:17;22.10;62.00
34640;DHT22;22600;48.186;11.526;2023-02-18T09:24:43;22.10;62.00
34640;DHT22;22600;48.186;11.526;2023-02-18T09:27:09;22.10;62.20
34640;DHT22;22600;48.186;11.526;2023-02-18T09:29:37;22.10;62.10
34640;DHT22;22600;48.186;11.526;2023-02-18T09:32:03;22.10;62.00
34640;DHT22;22600;48.186;11.526;2023-02-18T09:34:29;22.10;61.90
34640;DHT22;22600;48.186;11.526;2023-02-18T09:36:55;22.10;62.50
34640;DHT22;22600;48.186;11.526;2023-02-18T09:39:20;22.10;59.20
34640;DHT22;22600;48.186;11.526;2023-02-18T09:41:51;22.10;58.60
34640;DHT22;22600;48.186;11.526;2023-02-18T09:44:22;22.20;59.20
34640;DHT22;22600;48.186;11.526;2023-02-18T09:46:55;22.10;58.90
34640;DHT22;22600;48.186;11.526;2023-02-18T09:49:36;22.20;59.10
34640;DHT22;22600;48.186;11.526;2023-02-18T09:54:35;22.20;59.60
34640;DHT22;22600;48.186;11.526;2023-02-18T09:57:02;22.20;59.20
34640;DHT22;22600;48.186;11.526;2023-02-18T09:59:29;22.20;59.20
34640;DHT22;22600;48.186;11.526;2023-02-18T10:04:27;22.30;59.50
34640;DHT22;22600;48.186;11.526;2023-02-18T10:06:57;22.30;59.70
34640;DHT22;22600;48.186;11.526;2023-02-18T10:09:34;22.30;59.80
34640;DHT22;22600;48.186;11.526;2023-02-18T10:12:13;22.30;59.80
34640;DHT22;22600;48.186;11.526;2023-02-18T10:14:39;22.30;60.40
34640;DHT22;22600;48.186;11.526;2023-02-18T10:17:06;22.30;60.00
34640;DHT22;22600;48.186;11.526;2023-02-18T10:19:37;22.40;60.60
34640;DHT22;22600;48.186;11.526;2023-02-18T10:22:05;22.40;60.50
34640;DHT22;22600;48.186;11.526;2023-02-18T10:24:34;22.40;59.40
34640;DHT22;22600;48.186;11.526;2023-02-18T10:27:01;22.30;59.70
34640;DHT22;22600;48.186;11.526;2023-02-18T10:29:27;22.40;59.80
34640;DHT22;22600;48.186;11.526;2023-02-18T10:32:05;22.30;59.80
34640;DHT22;22600;48.186;11.526;2023-02-18T10:34:48;22.30;59.20
34640;DHT22;22600;48.186;11.526;2023-02-18T10:37:50;22.30;59.10
34640;DHT22;22600;48.186;11.526;2023-02-18T10:43:36;22.40;59.20
34640;DHT22;22600;48.186;11.526;2023-02-18T10:51:52;22.30;59.10
34640;DHT22;22600;48.186;11.526;2023-02-18T10:54:23;22.40;58.90
34640;DHT22;22600;48.186;11.526;2023-02-18T10:56:51;22.30;58.80
34640;DHT22;22600;48.186;11.526;2023-02-18T10:59:31;22.30;59.30
34640;DHT22;22600;48.186;11.526;2023-02-18T11:01:59;22.40;58.70
34640;DHT22;22600;48.186;11.526;2023-02-18T11:04:41;22.40;58.70
34640;DHT22;22600;48.186;11.526;2023-02-18T11:07:22;22.30;59.20
34640;DHT22;22600;48.186;11.526;2023-02-18T11:09:53;22.40;59.10
34640;DHT22;22600;48.186;11.526;2023-02-18T11:12:20;22.30;58.60
34640;DHT22;22600;48.186;11.526;2023-02-18T11:15:34;22.40;58.70
34640;DHT22;22600;48.186;11.526;2023-02-18T11:17:35;22.40;58.80
34640;DHT22;22600;48.186;11.526;2023-02-18T11:22:55;22.40;58.70
34640;DHT22;22600;48.186;11.526;2023-02-18T11:25:35;22.30;58.70
34640;DHT22;22600;48.186;11.526;2023-02-18T11:30:44;22.40;59.20
34640;DHT22;22600;48.186;11.526;2023-02-18T11:35:52;22.40;58.60
34640;DHT22;22600;48.186;11.526;2023-02-18T11:38:42;22.40;58.60
34640;DHT22;22600;48.186;11.526;2023-02-18T11:41:13;22.40;59.10
34640;DHT22;22600;48.186;11.526;2023-02-18T11:43:40;22.40;59.10
34640;DHT22;22600;48.186;11.526;2023-02-18T11:46:15;22.40;58.50
34640;DHT22;22600;48.186;11.526;2023-02-18T11:48:41;22.40;58.50
34640;DHT22;22600;48.186;11.526;2023-02-18T11:51:17;22.40;58.50
34640;DHT22;22600;48.186;11.526;2023-02-18T11:54:22;22.40;58.50
34640;DHT22;22600;48.186;11.526;2023-02-18T11:57:08;22.40;58.50
34640;DHT22;22600;48.186;11.526;2023-02-18T11:59:37;22.40;58.90
34640;DHT22;22600;48.186;11.526;2023-02-18T12:04:49;22.40;59.10
34640;DHT22;22600;48.186;11.526;2023-02-18T12:07:26;22.40;59.30
34640;DHT22;22600;48.186;11.526;2023-02-18T12:09:58;22.40;59.70
34640;DHT22;22600;48.186;11.526;2023-02-18T12:12:31;22.40;59.50
34640;DHT22;22600;48.186;11.526;2023-02-18T12:14:58;22.40;59.70
34640;DHT22;22600;48.186;11.526;2023-02-18T12:17:43;22.40;60.10
34640;DHT22;22600;48.186;11.526;2023-02-18T12:20:18;22.40;59.80
34640;DHT22;22600;48.186;11.526;2023-02-18T12:26:15;22.40;60.00
34640;DHT22;22600;48.186;11.526;2023-02-18T12:40:20;22.40;60.60
34640;DHT22;22600;48.186;11.526;2023-02-18T12:42:59;22.40;60.60
34640;DHT22;22600;48.186;11.526;2023-02-18T12:51:24;22.40;60.80
34640;DHT22;22600;48.186;11.526;2023-02-18T13:01:34;22.40;60.90
34640;DHT22;22600;48.186;11.526;2023-02-18T13:12:20;22.40;61.00
34640;DHT22;22600;48.186;11.526;2023-02-18T13:14:58;22.50;61.20
34640;DHT22;22600;48.186;11.526;2023-02-18T13:17:25;22.50;61.20
34640;DHT22;22600;48.186;11.526;2023-02-18T13:19:56;22.40;61.00
34640;DHT22;22600;48.186;11.526;2023-02-18T13:22:24;22.50;61.60
34640;DHT22;22600;48.186;11.526;2023-02-18T13:24:54;22.40;59.50
34640;DHT22;22600;48.186;11.526;2023-02-18T13:27:42;22.50;59.30
34640;DHT22;22600;48.186;11.526;2023-02-18T13:30:30;22.50;59.00
34640;DHT22;22600;48.186;11.526;2023-02-18T13:33:38;22.40;58.80
34640;DHT22;22600;48.186;11.526;2023-02-18T13:36:16;22.50;58.70
34640;DHT22;22600;48.186;11.526;2023-02-18T13:39:08;22.50;59.20
34640;DHT22;22600;48.186;11.526;2023-02-18T13:41:39;22.50;58.70
34640;DHT22;22600;48.186;11.526;2023-02-18T13:46:52;22.50;58.50
34640;DHT22;22600;48.186;11.526;2023-02-18T13:49:21;22.50;58.50
34640;DHT22;22600;48.186;11.526;2023-02-18T13:51:53;22.50;59.00
34640;DHT22;22600;48.186;11.526;2023-02-18T13:54:32;22.50;58.40
34640;DHT22;22600;48.186;11.526;2023-02-18T13:57:01;22.50;58.30
34640;DHT22;22600;48.186;11.526;2023-02-18T14:02:33;22.50;58.80
34640;DHT22;22600;48.186;11.526;2023-02-18T14:05:19;22.50;58.20
34640;DHT22;22600;48.186;11.526;2023-02-18T14:07:51;22.40;58.20
34640;DHT22;22600;48.186;11.526;2023-02-18T14:10:31;22.50;58.20
34640;DHT22;22600;48.186;11.526;2023-02-18T14:17:49;22.40;58.60
34640;DHT22;22600;48.186;11.526;2023-02-18T14:25:53;22.50;58.50
34640;DHT22;22600;48.186;11.526;2023-02-18T14:33:51;22.40;58.00
34640;DHT22;22600;48.186;11.526;2023-02-18T14:36:46;22.40;58.50
34640;DHT22;22600;48.186;11.526;2023-02-18T14:39:38;22.30;58.00
34640;DHT22;22600;48.186;11.526;2023-02-18T14:42:23;22.40;58.00
34640;DHT22;22600;48.186;11.526;2023-02-18T14:50:22;22.40;58.00
34640;DHT22;22600;48.186;11.526;2023-02-18T14:52:54;22.40;58.00
34640;DHT22;22600;48.186;11.526;2023-02-18T14:55:31;22.40;58.00
34640;DHT22;22600;48.186;11.526;2023-02-18T15:00:43;22.40;58.10
34640;DHT22;22600;48.186;11.526;2023-02-18T15:03:17;22.30;58.00
34640;DHT22;22600;48.186;11.526;2023-02-18T15:05:45;22.30;58.00
34640;DHT22;22600;48.186;11.526;2023-02-18T15:08:21;22.30;58.00
34640;DHT22;22600;48.186;11.526;2023-02-18T15:10:59;22.30;58.00
34640;DHT22;22600;48.186;11.526;2023-02-18T15:13:28;21.10;57.50
34640;DHT22;22600;48.186;11.526;2023-02-18T15:16:00;22.30;58.00
34640;DHT22;22600;48.186;11.526;2023-02-18T15:18:31;22.30;58.10
34640;DHT22;22600;48.186;11.526;2023-02-18T15:20:59;22.30;58.50
34640;DHT22;22600;48.186;11.526;2023-02-18T15:23:25;22.30;58.00
34640;DHT22;22600;48.186;11.526;2023-02-18T15:25:52;22.30;58.00
34640;DHT22;22600;48.186;11.526;2023-02-18T15:28:41;22.30;58.00
34640;DHT22;22600;48.186;11.526;2023-02-18T15:31:10;22.30;58.00
34640;DHT22;22600;48.186;11.526;2023-02-18T15:33:42;22.20;57.90
34640;DHT22;22600;48.186;11.526;2023-02-18T15:36:13;22.30;58.00
34640;DHT22;22600;48.186;11.526;2023-02-18T15:38:39;22.30;58.00
34640;DHT22;22600;48.186;11.526;2023-02-18T15:41:12;22.30;58.00
34640;DHT22;22600;48.186;11.526;2023-02-18T15:43:38;22.30;58.00
34640;DHT22;22600;48.186;11.526;2023-02-18T15:46:11;22.30;58.00
34640;DHT22;22600;48.186;11.526;2023-02-18T15:48:45;22.20;57.90
34640;DHT22;22600;48.186;11.526;2023-02-18T15:51:14;22.20;57.90
34640;DHT22;22600;48.186;11.526;2023-02-18T15:53:41;22.30;57.90
34640;DHT22;22600;48.186;11.526;2023-02-18T15:56:12;22.30;57.90
34640;DHT22;22600;48.186;11.526;2023-02-18T15:58:38;22.20;58.40
34640;DHT22;22600;48.186;11.526;2023-02-18T16:01:06;22.20;57.90
34640;DHT22;22600;48.186;11.526;2023-02-18T16:03:45;22.20;58.40
34640;DHT22;22600;48.186;11.526;2023-02-18T16:06:21;22.20;58.40
34640;DHT22;22600;48.186;11.526;2023-02-18T16:11:26;22.20;57.90
34640;DHT22;22600;48.186;11.526;2023-02-18T16:13:54;22.20;57.90
34640;DHT22;22600;48.186;11.526;2023-02-18T16:16:27;22.20;58.40
34640;DHT22;22600;48.186;11.526;2023-02-18T16:18:53;22.20;57.90
34640;DHT22;22600;48.186;11.526;2023-02-18T16:23:54;22.20;57.90
34640;DHT22;22600;48.186;11.526;2023-02-18T16:26:40;22.20;58.00
34640;DHT22;22600;48.186;11.526;2023-02-18T16:29:19;22.20;57.90
34640;DHT22;22600;48.186;11.526;2023-02-18T16:31:45;22.20;58.40
34640;DHT22;22600;48.186;11.526;2023-02-18T16:34:11;22.20;58.00
34640;DHT22;22600;48.186;11.526;2023-02-18T16:36:36;22.20;57.90
34640;DHT22;22600;48.186;11.526;2023-02-18T16:39:22;22.20;57.90
34640;DHT22;22600;48.186;11.526;2023-02-18T16:41:47;22.20;57.90
34640;DHT22;22600;48.186;11.526;2023-02-18T16:44:13;22.20;57.90
34640;DHT22;22600;48.186;11.526;2023-02-18T16:49:05;22.20;57.90
34640;DHT22;22600;48.186;11.526;2023-02-18T16:51:33;22.20;57.90
34640;DHT22;22600;48.186;11.526;2023-02-18T16:53:59;22.20;57.90
34640;DHT22;22600;48.186;11.526;2023-02-18T16:56:26;22.20;57.90
34640;DHT22;22600;48.186;11.526;2023-02-18T16:58:54;22.20;57.90
34640;DHT22;22600;48.186;11.526;2023-02-18T17:01:27;22.10;57.80
34640;DHT22;22600;48.186;11.526;2023-02-18T17:03:54;22.20;57.90
34640;DHT22;22600;48.186;11.526;2023-02-18T17:06:20;22.20;57.90
34640;DHT22;22600;48.186;11.526;2023-02-18T17:08:46;22.10;57.90
34640;DHT22;22600;48.186;11.526;2023-02-18T17:13:45;22.10;57.80
34640;DHT22;22600;48.186;11.526;2023-02-18T17:16:10;18.10;55.80
34640;DHT22;22600;48.186;11.526;2023-02-18T17:18:36;22.10;57.80
34640;DHT22;22600;48.186;11.526;2023-02-18T17:21:02;22.10;57.80
34640;DHT22;22600;48.186;11.526;2023-02-18T17:23:28;21.50;57.50
34640;DHT22;22600;48.186;11.526;2023-02-18T17:25:53;22.20;58.30
34640;DHT22;22600;48.186;11.526;2023-02-18T17:28:19;22.10;57.80
34640;DHT22;22600;48.186;11.526;2023-02-18T17:30:47;22.10;57.80
34640;DHT22;22600;48.186;11.526;2023-02-18T17:33:17;22.10;57.80
34640;DHT22;22600;48.186;11.526;2023-02-18T17:35:43;22.10;57.80
34640;DHT22;22600;48.186;11.526;2023-02-18T17:38:10;22.10;58.20
34640;DHT22;22600;48.186;11.526;2023-02-18T17:40:36;22.10;57.70
34640;DHT22;22600;48.186;11.526;2023-02-18T17:43:01;22.10;57.80
34640;DHT22;22600;48.186;11.526;2023-02-18T17:45:35;22.10;57.80
34640;DHT22;22600;48.186;11.526;2023-02-18T17:48:01;22.10;57.70
34640;DHT22;22600;48.186;11.526;2023-02-18T17:50:29;22.10;57.70
34640;DHT22;22600;48.186;11.526;2023-02-18T17:52:55;22.10;58.20
34640;DHT22;22600;48.186;11.526;2023-02-18T17:55:23;22.10;57.80
34640;DHT22;22600;48.186;11.526;2023-02-18T17:57:50;22.10;57.80